sensor_id;sensor_type;location;lat;lon;timestamp;pressure;altitude;pressure_sealevel;temperature;humidity
21395;BME280;10858;42.714;23.180;2022-07-09T00:00:28;94326.84;;;18.86;87.07
21395;BME280;10858;42.714;23.180;2022-07-09T00:02:54;94326.22;;;18.84;86.49
21395;BME280;10858;42.714;23.180;2022-07-09T00:05:20;94324.63;;;18.89;85.02
21395;BME280;10858;42.714;23.180;2022-07-09T00:07:46;94325.81;;;18.87;84.93
21395;BME280;10858;42.714;23.180;2022-07-09T00:10:14;94325.47;;;18.75;85.90
21395;BME280;10858;42.714;23.180;2022-07-09T00:12:40;94317.31;;;18.68;86.63
21395;BME280;10858;42.714;23.180;2022-07-09T00:15:07;94317.09;;;18.70;86.69
21395;BME280;10858;42.714;23.180;2022-07-09T00:17:33;94319.91;;;18.77;85.91
21395;BME280;10858;42.714;23.180;2022-07-09T00:20:00;94330.28;;;18.80;85.46
21395;BME280;10858;42.714;23.180;2022-07-09T00:22:28;94329.91;;;18.83;84.67
21395;BME280;10858;42.714;23.180;2022-07-09T00:24:55;94323.41;;;18.62;85.09
21395;BME280;10858;42.714;23.180;2022-07-09T00:27:21;94332.94;;;18.50;86.07
21395;BME280;10858;42.714;23.180;2022-07-09T00:29:47;94331.69;;;18.38;88.71
21395;BME280;10858;42.714;23.180;2022-07-09T00:32:14;94330.22;;;18.21;90.25
21395;BME280;10858;42.714;23.180;2022-07-09T00:34:40;94327.81;;;18.41;88.13
21395;BME280;10858;42.714;23.180;2022-07-09T00:37:06;94329.22;;;18.37;87.10
21395;BME280;10858;42.714;23.180;2022-07-09T00:39:33;94329.00;;;18.24;87.04
21395;BME280;10858;42.714;23.180;2022-07-09T00:42:07;94327.06;;;18.32;86.64
21395;BME280;10858;42.714;23.180;2022-07-09T00:44:34;94318.91;;;18.11;86.76
21395;BME280;10858;42.714;23.180;2022-07-09T00:47:02;94318.81;;;17.82;88.85
21395;BME280;10858;42.714;23.180;2022-07-09T00:49:30;94317.16;;;17.81;89.16
21395;BME280;10858;42.714;23.180;2022-07-09T00:51:57;94316.03;;;17.75;89.59
21395;BME280;10858;42.714;23.180;2022-07-09T00:54:24;94314.03;;;17.92;88.52
21395;BME280;10858;42.714;23.180;2022-07-09T00:56:52;94306.41;;;17.81;88.84
21395;BME280;10858;42.714;23.180;2022-07-09T00:59:21;94308.78;;;17.76;89.45
21395;BME280;10858;42.714;23.180;2022-07-09T01:01:49;94301.25;;;17.79;88.75
21395;BME280;10858;42.714;23.180;2022-07-09T01:04:15;94297.97;;;17.69;89.62
21395;BME280;10858;42.714;23.180;2022-07-09T01:06:42;94293.78;;;17.67;90.29
21395;BME280;10858;42.714;23.180;2022-07-09T01:09:08;94293.31;;;17.63;89.78
21395;BME280;10858;42.714;23.180;2022-07-09T01:11:35;94290.78;;;17.62;90.11
21395;BME280;10858;42.714;23.180;2022-07-09T01:14:01;94287.69;;;17.73;89.09
21395;BME280;10858;42.714;23.180;2022-07-09T01:16:35;94290.78;;;17.62;89.49
21395;BME280;10858;42.714;23.180;2022-07-09T01:19:04;94283.53;;;17.70;89.46
21395;BME280;10858;42.714;23.180;2022-07-09T01:21:30;94287.03;;;17.71;89.22
21395;BME280;10858;42.714;23.180;2022-07-09T01:23:56;94274.56;;;17.78;89.04
21395;BME280;10858;42.714;23.180;2022-07-09T01:26:26;94275.88;;;17.82;88.42
21395;BME280;10858;42.714;23.180;2022-07-09T01:28:53;94280.00;;;17.70;89.02
21395;BME280;10858;42.714;23.180;2022-07-09T01:31:19;94281.06;;;17.83;88.57
21395;BME280;10858;42.714;23.180;2022-07-09T01:33:46;94272.38;;;17.81;88.31
21395;BME280;10858;42.714;23.180;2022-07-09T01:36:12;94264.97;;;17.83;88.54
21395;BME280;10858;42.714;23.180;2022-07-09T01:38:38;94270.50;;;17.82;88.06
21395;BME280;10858;42.714;23.180;2022-07-09T01:41:05;94273.25;;;17.74;88.85
21395;BME280;10858;42.714;23.180;2022-07-09T01:43:31;94273.25;;;17.74;88.91
21395;BME280;10858;42.714;23.180;2022-07-09T01:45:59;94265.19;;;17.74;88.28
21395;BME280;10858;42.714;23.180;2022-07-09T01:48:29;94269.56;;;17.75;88.68
21395;BME280;10858;42.714;23.180;2022-07-09T01:50:55;94267.53;;;17.77;88.40
21395;BME280;10858;42.714;23.180;2022-07-09T01:53:24;94272.84;;;17.85;88.18
21395;BME280;10858;42.714;23.180;2022-07-09T01:55:50;94265.25;;;17.89;87.90
21395;BME280;10858;42.714;23.180;2022-07-09T01:58:17;94265.97;;;17.82;88.18
21395;BME280;10858;42.714;23.180;2022-07-09T02:00:44;94268.84;;;17.81;88.42
21395;BME280;10858;42.714;23.180;2022-07-09T02:03:10;94265.84;;;17.76;88.17
21395;BME280;10858;42.714;23.180;2022-07-09T02:05:36;94268.19;;;17.79;87.90
21395;BME280;10858;42.714;23.180;2022-07-09T02:08:03;94272.44;;;17.73;88.07
21395;BME280;10858;42.714;23.180;2022-07-09T02:10:29;94270.16;;;17.85;87.81
21395;BME280;10858;42.714;23.180;2022-07-09T02:12:56;94269.16;;;18.01;86.75
21395;BME280;10858;42.714;23.180;2022-07-09T02:15:22;94265.34;;;17.95;86.61
21395;BME280;10858;42.714;23.180;2022-07-09T02:17:49;94271.38;;;17.97;87.00
21395;BME280;10858;42.714;23.180;2022-07-09T02:20:15;94275.75;;;18.13;86.08
21395;BME280;10858;42.714;23.180;2022-07-09T02:22:41;94267.69;;;18.13;85.51
21395;BME280;10858;42.714;23.180;2022-07-09T02:25:08;94272.31;;;18.04;85.95
21395;BME280;10858;42.714;23.180;2022-07-09T02:27:34;94283.13;;;17.96;86.56
21395;BME280;10858;42.714;23.180;2022-07-09T02:30:00;94279.13;;;17.92;86.13
21395;BME280;10858;42.714;23.180;2022-07-09T02:32:27;94282.38;;;18.02;86.21
21395;BME280;10858;42.714;23.180;2022-07-09T02:34:53;94291.53;;;17.93;86.68
21395;BME280;10858;42.714;23.180;2022-07-09T02:37:19;94298.56;;;17.79;87.87
21395;BME280;10858;42.714;23.180;2022-07-09T02:39:45;94293.66;;;17.83;88.48
21395;BME280;10858;42.714;23.180;2022-07-09T02:42:12;94289.31;;;17.97;87.51
21395;BME280;10858;42.714;23.180;2022-07-09T02:44:38;94294.56;;;17.75;88.32
21395;BME280;10858;42.714;23.180;2022-07-09T02:47:04;94288.47;;;17.81;88.55
21395;BME280;10858;42.714;23.180;2022-07-09T02:49:30;94291.00;;;17.98;87.50
21395;BME280;10858;42.714;23.180;2022-07-09T02:51:57;94294.81;;;18.03;86.84
21395;BME280;10858;42.714;23.180;2022-07-09T02:54:25;94297.72;;;17.79;87.62
21395;BME280;10858;42.714;23.180;2022-07-09T02:56:52;94291.44;;;17.87;87.34
21395;BME280;10858;42.714;23.180;2022-07-09T02:59:18;94298.44;;;17.73;88.03
21395;BME280;10858;42.714;23.180;2022-07-09T03:01:44;94291.16;;;17.96;87.59
21395;BME280;10858;42.714;23.180;2022-07-09T03:04:11;94290.50;;;17.79;87.41
21395;BME280;10858;42.714;23.180;2022-07-09T03:06:39;94298.56;;;17.79;87.31
21395;BME280;10858;42.714;23.180;2022-07-09T03:09:05;94294.13;;;17.64;88.32
21395;BME280;10858;42.714;23.180;2022-07-09T03:11:32;94302.63;;;17.53;88.60
21395;BME280;10858;42.714;23.180;2022-07-09T03:13:59;94305.56;;;17.58;87.99
21395;BME280;10858;42.714;23.180;2022-07-09T03:16:25;94296.00;;;17.63;88.41
21395;BME280;10858;42.714;23.180;2022-07-09T03:18:51;94307.97;;;17.53;88.10
21395;BME280;10858;42.714;23.180;2022-07-09T03:21:17;94303.50;;;17.68;88.02
21395;BME280;10858;42.714;23.180;2022-07-09T03:23:43;94306.88;;;17.84;87.70
21395;BME280;10858;42.714;23.180;2022-07-09T03:26:10;94304.78;;;17.72;87.64
21395;BME280;10858;42.714;23.180;2022-07-09T03:28:37;94308.56;;;17.86;87.79
21395;BME280;10858;42.714;23.180;2022-07-09T03:31:03;94304.13;;;17.93;87.00
21395;BME280;10858;42.714;23.180;2022-07-09T03:33:29;94304.31;;;17.91;87.18
21395;BME280;10858;42.714;23.180;2022-07-09T03:35:56;94302.03;;;17.80;87.52
21395;BME280;10858;42.714;23.180;2022-07-09T03:38:23;94295.03;;;17.79;87.84
21395;BME280;10858;42.714;23.180;2022-07-09T03:40:50;94302.94;;;17.95;86.86
21395;BME280;10858;42.714;23.180;2022-07-09T03:43:16;94303.59;;;17.97;86.90
21395;BME280;10858;42.714;23.180;2022-07-09T03:45:43;94301.47;;;18.07;86.62
21395;BME280;10858;42.714;23.180;2022-07-09T03:48:09;94299.78;;;18.06;86.22
21395;BME280;10858;42.714;23.180;2022-07-09T03:50:36;94296.19;;;18.14;86.17
21395;BME280;10858;42.714;23.180;2022-07-09T03:53:02;94297.13;;;18.06;85.95
21395;BME280;10858;42.714;23.180;2022-07-09T03:55:29;94311.41;;;18.21;86.09
21395;BME280;10858;42.714;23.180;2022-07-09T03:57:55;94304.81;;;18.09;85.86
21395;BME280;10858;42.714;23.180;2022-07-09T04:00:21;94306.28;;;18.12;85.99
21395;BME280;10858;42.714;23.180;2022-07-09T04:02:48;94309.22;;;18.02;86.01
21395;BME280;10858;42.714;23.180;2022-07-09T04:05:14;94305.81;;;17.94;87.13
21395;BME280;10858;42.714;23.180;2022-07-09T04:07:41;94297.91;;;17.92;87.62
21395;BME280;10858;42.714;23.180;2022-07-09T04:10:08;94306.16;;;17.91;86.74
21395;BME280;10858;42.714;23.180;2022-07-09T04:12:34;94313.94;;;18.00;87.14
21395;BME280;10858;42.714;23.180;2022-07-09T04:15:00;94318.84;;;17.97;86.32
21395;BME280;10858;42.714;23.180;2022-07-09T04:17:27;94324.16;;;17.82;87.48
21395;BME280;10858;42.714;23.180;2022-07-09T04:19:53;94328.47;;;17.91;87.78
21395;BME280;10858;42.714;23.180;2022-07-09T04:22:19;94323.97;;;18.06;87.09
21395;BME280;10858;42.714;23.180;2022-07-09T04:24:45;94317.69;;;18.14;86.19
21395;BME280;10858;42.714;23.180;2022-07-09T04:27:11;94323.03;;;17.99;87.31
21395;BME280;10858;42.714;23.180;2022-07-09T04:29:38;94316.06;;;17.90;87.57
21395;BME280;10858;42.714;23.180;2022-07-09T04:32:04;94321.97;;;17.86;87.42
21395;BME280;10858;42.714;23.180;2022-07-09T04:34:30;94328.47;;;17.91;88.40
21395;BME280;10858;42.714;23.180;2022-07-09T04:36:57;94328.72;;;17.81;87.71
21395;BME280;10858;42.714;23.180;2022-07-09T04:39:23;94338.63;;;17.81;88.00
21395;BME280;10858;42.714;23.180;2022-07-09T04:41:51;94328.59;;;17.98;87.35
21395;BME280;10858;42.714;23.180;2022-07-09T04:44:17;94314.59;;;18.02;86.70
21395;BME280;10858;42.714;23.180;2022-07-09T04:46:43;94321.06;;;17.93;86.56
21395;BME280;10858;42.714;23.180;2022-07-09T04:49:10;94318.41;;;17.70;87.69
21395;BME280;10858;42.714;23.180;2022-07-09T04:51:36;94322.00;;;18.00;87.39
21395;BME280;10858;42.714;23.180;2022-07-09T04:54:03;94313.94;;;18.00;87.53
21395;BME280;10858;42.714;23.180;2022-07-09T04:56:29;94325.44;;;18.09;87.91
21395;BME280;10858;42.714;23.180;2022-07-09T04:58:56;94317.50;;;18.15;87.62
21395;BME280;10858;42.714;23.180;2022-07-09T05:01:23;94316.88;;;18.13;87.67
21395;BME280;10858;42.714;23.180;2022-07-09T05:03:49;94329.78;;;18.10;87.17
21395;BME280;10858;42.714;23.180;2022-07-09T05:06:17;94326.44;;;17.93;87.81
21395;BME280;10858;42.714;23.180;2022-07-09T05:08:44;94334.50;;;18.08;88.43
21395;BME280;10858;42.714;23.180;2022-07-09T05:11:10;94331.75;;;18.16;88.11
21395;BME280;10858;42.714;23.180;2022-07-09T05:13:37;94333.00;;;17.91;87.41
21395;BME280;10858;42.714;23.180;2022-07-09T05:16:06;94342.88;;;17.90;87.98
21395;BME280;10858;42.714;23.180;2022-07-09T05:18:33;94337.97;;;18.16;88.40
21395;BME280;10858;42.714;23.180;2022-07-09T05:20:59;94341.81;;;17.99;86.65
21395;BME280;10858;42.714;23.180;2022-07-09T05:23:26;94338.69;;;18.10;86.62
21395;BME280;10858;42.714;23.180;2022-07-09T05:25:52;94341.31;;;18.18;86.99
21395;BME280;10858;42.714;23.180;2022-07-09T05:28:19;94349.09;;;18.13;85.63
21395;BME280;10858;42.714;23.180;2022-07-09T05:30:45;94344.38;;;18.15;86.34
21395;BME280;10858;42.714;23.180;2022-07-09T05:33:12;94349.75;;;18.30;87.19
21395;BME280;10858;42.714;23.180;2022-07-09T05:35:38;94350.84;;;18.58;85.53
21395;BME280;10858;42.714;23.180;2022-07-09T05:38:04;94349.94;;;18.65;84.73
21395;BME280;10858;42.714;23.180;2022-07-09T05:40:30;94361.03;;;18.62;85.02
21395;BME280;10858;42.714;23.180;2022-07-09T05:42:56;94350.47;;;18.46;85.31
21395;BME280;10858;42.714;23.180;2022-07-09T05:45:23;94353.16;;;18.90;85.17
21395;BME280;10858;42.714;23.180;2022-07-09T05:47:49;94352.41;;;19.11;83.80
21395;BME280;10858;42.714;23.180;2022-07-09T05:50:16;94347.72;;;18.84;82.65
21395;BME280;10858;42.714;23.180;2022-07-09T05:52:42;94348.53;;;18.55;84.24
21395;BME280;10858;42.714;23.180;2022-07-09T05:55:08;94357.44;;;18.85;83.60
21395;BME280;10858;42.714;23.180;2022-07-09T05:57:35;94350.75;;;18.81;83.27
21395;BME280;10858;42.714;23.180;2022-07-09T06:00:02;94359.56;;;18.75;83.95
21395;BME280;10858;42.714;23.180;2022-07-09T06:02:30;94355.84;;;18.90;83.42
21395;BME280;10858;42.714;23.180;2022-07-09T06:04:56;94353.16;;;18.90;82.90
21395;BME280;10858;42.714;23.180;2022-07-09T06:07:23;94363.91;;;18.61;83.71
21395;BME280;10858;42.714;23.180;2022-07-09T06:09:49;94363.66;;;19.00;82.58
21395;BME280;10858;42.714;23.180;2022-07-09T06:12:15;94355.84;;;19.05;80.94
21395;BME280;10858;42.714;23.180;2022-07-09T06:14:41;94358.81;;;18.95;82.39
21395;BME280;10858;42.714;23.180;2022-07-09T06:17:07;94360.31;;;18.83;81.64
21395;BME280;10858;42.714;23.180;2022-07-09T06:19:37;94361.91;;;18.78;82.38
21395;BME280;10858;42.714;23.180;2022-07-09T06:22:04;94361.97;;;18.99;82.94
21395;BME280;10858;42.714;23.180;2022-07-09T06:24:31;94367.25;;;19.07;81.78
21395;BME280;10858;42.714;23.180;2022-07-09T06:26:57;94370.88;;;19.14;81.54
21395;BME280;10858;42.714;23.180;2022-07-09T06:29:23;94372.13;;;19.32;79.68
21395;BME280;10858;42.714;23.180;2022-07-09T06:31:49;94370.44;;;19.46;80.21
21395;BME280;10858;42.714;23.180;2022-07-09T06:34:16;94374.16;;;19.30;80.26
21395;BME280;10858;42.714;23.180;2022-07-09T06:36:42;94372.44;;;19.23;80.59
21395;BME280;10858;42.714;23.180;2022-07-09T06:39:10;94376.59;;;19.40;80.00
21395;BME280;10858;42.714;23.180;2022-07-09T06:42:05;94377.69;;;19.31;81.03
21395;BME280;10858;42.714;23.180;2022-07-09T06:44:32;94377.16;;;19.21;80.74
21395;BME280;10858;42.714;23.180;2022-07-09T06:46:58;94379.13;;;19.41;81.16
21395;BME280;10858;42.714;23.180;2022-07-09T06:49:25;94382.38;;;19.08;82.16
21395;BME280;10858;42.714;23.180;2022-07-09T06:51:51;94375.56;;;19.26;81.48
21395;BME280;10858;42.714;23.180;2022-07-09T06:54:17;94380.16;;;19.11;81.94
21395;BME280;10858;42.714;23.180;2022-07-09T06:56:43;94380.03;;;19.19;81.53
21395;BME280;10858;42.714;23.180;2022-07-09T06:59:09;94379.19;;;19.19;81.71
21395;BME280;10858;42.714;23.180;2022-07-09T07:01:36;94373.28;;;19.23;81.47
21395;BME280;10858;42.714;23.180;2022-07-09T07:04:02;94383.28;;;19.29;81.53
21395;BME280;10858;42.714;23.180;2022-07-09T07:06:28;94379.59;;;18.87;82.08
21395;BME280;10858;42.714;23.180;2022-07-09T07:08:54;94381.81;;;18.68;84.72
21395;BME280;10858;42.714;23.180;2022-07-09T07:11:20;94392.94;;;18.95;84.40
21395;BME280;10858;42.714;23.180;2022-07-09T07:13:47;94387.75;;;19.08;83.17
21395;BME280;10858;42.714;23.180;2022-07-09T07:16:13;94394.31;;;19.34;82.48
21395;BME280;10858;42.714;23.180;2022-07-09T07:18:40;94383.75;;;19.33;82.81
21395;BME280;10858;42.714;23.180;2022-07-09T07:21:06;94382.25;;;19.45;82.14
21395;BME280;10858;42.714;23.180;2022-07-09T07:23:32;94390.53;;;19.43;81.88
21395;BME280;10858;42.714;23.180;2022-07-09T07:25:59;94380.59;;;19.15;82.81
21395;BME280;10858;42.714;23.180;2022-07-09T07:28:26;94388.16;;;19.55;82.07
21395;BME280;10858;42.714;23.180;2022-07-09T07:30:53;94388.19;;;19.40;81.73
21395;BME280;10858;42.714;23.180;2022-07-09T07:33:20;94393.53;;;19.70;81.08
21395;BME280;10858;42.714;23.180;2022-07-09T07:35:47;94398.50;;;19.73;81.51
21395;BME280;10858;42.714;23.180;2022-07-09T07:38:13;94399.63;;;19.99;80.62
21395;BME280;10858;42.714;23.180;2022-07-09T07:40:40;94400.53;;;20.06;79.97
21395;BME280;10858;42.714;23.180;2022-07-09T07:43:06;94396.63;;;19.88;79.01
21395;BME280;10858;42.714;23.180;2022-07-09T07:45:32;94393.50;;;20.05;79.57
21395;BME280;10858;42.714;23.180;2022-07-09T07:47:58;94397.06;;;20.12;80.09
21395;BME280;10858;42.714;23.180;2022-07-09T07:50:25;94388.72;;;20.22;78.96
21395;BME280;10858;42.714;23.180;2022-07-09T07:52:51;94389.75;;;20.06;79.34
21395;BME280;10858;42.714;23.180;2022-07-09T07:55:17;94390.44;;;20.29;78.36
21395;BME280;10858;42.714;23.180;2022-07-09T07:57:43;94389.81;;;20.55;77.42
21395;BME280;10858;42.714;23.180;2022-07-09T08:00:10;94393.28;;;20.77;76.01
21395;BME280;10858;42.714;23.180;2022-07-09T08:02:36;94386.38;;;20.95;73.97
21395;BME280;10858;42.714;23.180;2022-07-09T08:05:03;94391.34;;;20.92;75.20
21395;BME280;10858;42.714;23.180;2022-07-09T08:07:31;94384.81;;;21.07;73.22
21395;BME280;10858;42.714;23.180;2022-07-09T08:09:57;94389.69;;;20.63;73.89
21395;BME280;10858;42.714;23.180;2022-07-09T08:12:23;94383.59;;;20.55;74.49
21395;BME280;10858;42.714;23.180;2022-07-09T08:14:49;94384.72;;;20.67;75.22
21395;BME280;10858;42.714;23.180;2022-07-09T08:17:15;94398.59;;;20.64;74.76
21395;BME280;10858;42.714;23.180;2022-07-09T08:19:42;94384.88;;;21.14;74.28
21395;BME280;10858;42.714;23.180;2022-07-09T08:22:08;94384.81;;;21.07;74.33
21395;BME280;10858;42.714;23.180;2022-07-09T08:24:34;94380.50;;;21.54;72.27
21395;BME280;10858;42.714;23.180;2022-07-09T08:27:01;94380.25;;;22.02;71.20
21395;BME280;10858;42.714;23.180;2022-07-09T08:29:27;94384.00;;;22.02;70.07
21395;BME280;10858;42.714;23.180;2022-07-09T08:31:53;94376.19;;;22.78;69.17
21395;BME280;10858;42.714;23.180;2022-07-09T08:34:19;94378.44;;;23.14;65.04
21395;BME280;10858;42.714;23.180;2022-07-09T08:36:46;94383.03;;;22.94;66.47
21395;BME280;10858;42.714;23.180;2022-07-09T08:39:12;94384.91;;;23.77;67.43
21395;BME280;10858;42.714;23.180;2022-07-09T08:41:38;94389.44;;;23.90;63.50
21395;BME280;10858;42.714;23.180;2022-07-09T08:44:05;94387.13;;;23.29;63.56
21395;BME280;10858;42.714;23.180;2022-07-09T08:46:35;94382.16;;;23.13;65.83
21395;BME280;10858;42.714;23.180;2022-07-09T08:49:03;94390.84;;;23.48;62.70
21395;BME280;10858;42.714;23.180;2022-07-09T08:51:31;94395.13;;;23.75;63.57
21395;BME280;10858;42.714;23.180;2022-07-09T08:53:58;94390.66;;;23.30;64.07
21395;BME280;10858;42.714;23.180;2022-07-09T08:56:26;94393.72;;;24.17;63.37
21395;BME280;10858;42.714;23.180;2022-07-09T08:58:52;94400.81;;;23.60;64.37
21395;BME280;10858;42.714;23.180;2022-07-09T09:01:19;94396.28;;;23.35;64.89
21395;BME280;10858;42.714;23.180;2022-07-09T09:03:48;94397.09;;;23.29;63.20
21395;BME280;10858;42.714;23.180;2022-07-09T09:06:15;94403.66;;;22.89;64.53
21395;BME280;10858;42.714;23.180;2022-07-09T09:08:43;94394.38;;;21.98;66.28
21395;BME280;10858;42.714;23.180;2022-07-09T09:11:20;94397.41;;;21.28;70.95
21395;BME280;10858;42.714;23.180;2022-07-09T09:13:50;94397.00;;;21.31;71.30
21395;BME280;10858;42.714;23.180;2022-07-09T09:16:18;94396.09;;;21.58;70.72
21395;BME280;10858;42.714;23.180;2022-07-09T09:18:46;94396.56;;;21.68;72.12
21395;BME280;10858;42.714;23.180;2022-07-09T09:21:14;94403.34;;;22.25;72.45
21395;BME280;10858;42.714;23.180;2022-07-09T09:23:52;94397.75;;;22.20;69.16
21395;BME280;10858;42.714;23.180;2022-07-09T09:26:23;94405.59;;;21.95;69.91
21395;BME280;10858;42.714;23.180;2022-07-09T09:28:54;94399.25;;;21.68;71.27
21395;BME280;10858;42.714;23.180;2022-07-09T09:34:14;94401.88;;;21.14;73.19
21395;BME280;10858;42.714;23.180;2022-07-09T09:36:43;94405.19;;;21.10;73.48
21395;BME280;10858;42.714;23.180;2022-07-09T09:39:26;94402.56;;;20.95;73.35
21395;BME280;10858;42.714;23.180;2022-07-09T09:41:54;94398.09;;;20.54;75.90
21395;BME280;10858;42.714;23.180;2022-07-09T09:44:24;94403.22;;;20.49;74.58
21395;BME280;10858;42.714;23.180;2022-07-09T09:46:56;94394.63;;;20.87;73.73
21395;BME280;10858;42.714;23.180;2022-07-09T09:49:24;94391.22;;;20.51;75.89
21395;BME280;10858;42.714;23.180;2022-07-09T09:52:04;94396.56;;;20.72;75.25
21395;BME280;10858;42.714;23.180;2022-07-09T09:54:36;94399.03;;;20.95;71.54
21395;BME280;10858;42.714;23.180;2022-07-09T09:57:07;94390.53;;;20.70;74.82
21395;BME280;10858;42.714;23.180;2022-07-09T09:59:41;94405.75;;;20.50;74.67
21395;BME280;10858;42.714;23.180;2022-07-09T10:02:09;94398.25;;;20.24;76.39
21395;BME280;10858;42.714;23.180;2022-07-09T10:04:40;94400.78;;;20.11;78.69
21395;BME280;10858;42.714;23.180;2022-07-09T10:07:08;94397.72;;;19.93;77.25
21395;BME280;10858;42.714;23.180;2022-07-09T10:09:35;94404.56;;;19.60;79.47
21395;BME280;10858;42.714;23.180;2022-07-09T10:12:01;94398.75;;;19.42;82.53
21395;BME280;10858;42.714;23.180;2022-07-09T10:16:53;94395.16;;;19.35;81.45
21395;BME280;10858;42.714;23.180;2022-07-09T10:19:30;94399.81;;;19.12;81.94
21395;BME280;10858;42.714;23.180;2022-07-09T10:21:59;94409.81;;;19.18;81.68
21395;BME280;10858;42.714;23.180;2022-07-09T10:24:29;94412.19;;;18.69;81.62
21395;BME280;10858;42.714;23.180;2022-07-09T10:27:06;94410.78;;;18.58;84.22
21395;BME280;10858;42.714;23.180;2022-07-09T10:29:34;94412.81;;;18.56;83.08
21395;BME280;10858;42.714;23.180;2022-07-09T10:32:01;94407.75;;;18.91;82.10
21395;BME280;10858;42.714;23.180;2022-07-09T10:34:53;94421.25;;;18.53;81.89
21395;BME280;10858;42.714;23.180;2022-07-09T10:40:04;94425.50;;;19.00;81.46
21395;BME280;10858;42.714;23.180;2022-07-09T10:42:30;94428.22;;;18.62;82.36
21395;BME280;10858;42.714;23.180;2022-07-09T10:44:56;94417.25;;;18.27;82.66
21395;BME280;10858;42.714;23.180;2022-07-09T10:47:22;94424.59;;;18.33;83.86
21395;BME280;10858;42.714;23.180;2022-07-09T10:49:49;94430.59;;;18.43;84.04
21395;BME280;10858;42.714;23.180;2022-07-09T10:52:15;94438.22;;;18.31;83.49
21395;BME280;10858;42.714;23.180;2022-07-09T10:54:48;94438.13;;;18.47;83.49
21395;BME280;10858;42.714;23.180;2022-07-09T10:57:14;94434.25;;;18.64;82.34
21395;BME280;10858;42.714;23.180;2022-07-09T10:59:47;94425.63;;;18.69;83.53
21395;BME280;10858;42.714;23.180;2022-07-09T11:02:21;94431.28;;;18.14;83.37
21395;BME280;10858;42.714;23.180;2022-07-09T11:04:52;94437.19;;;18.32;83.55
21395;BME280;10858;42.714;23.180;2022-07-09T11:07:22;94441.44;;;18.27;83.64
21395;BME280;10858;42.714;23.180;2022-07-09T11:09:50;94438.81;;;18.19;82.23
21395;BME280;10858;42.714;23.180;2022-07-09T11:12:20;94437.31;;;18.16;84.02
21395;BME280;10858;42.714;23.180;2022-07-09T11:14:48;94437.75;;;18.05;83.88
21395;BME280;10858;42.714;23.180;2022-07-09T11:17:19;94422.75;;;18.11;84.57
21395;BME280;10858;42.714;23.180;2022-07-09T11:19:46;94433.06;;;18.22;83.40
21395;BME280;10858;42.714;23.180;2022-07-09T11:22:17;94441.56;;;18.33;83.53
21395;BME280;10858;42.714;23.180;2022-07-09T11:24:43;94432.66;;;18.10;83.19
21395;BME280;10858;42.714;23.180;2022-07-09T11:27:10;94440.94;;;17.78;84.68
21395;BME280;10858;42.714;23.180;2022-07-09T11:29:36;94439.81;;;17.95;85.58
21395;BME280;10858;42.714;23.180;2022-07-09T11:32:03;94441.03;;;18.15;84.90
21395;BME280;10858;42.714;23.180;2022-07-09T11:34:30;94442.56;;;17.87;84.20
21395;BME280;10858;42.714;23.180;2022-07-09T11:36:57;94451.75;;;17.93;84.91
21395;BME280;10858;42.714;23.180;2022-07-09T11:39:32;94444.38;;;18.17;85.18
21395;BME280;10858;42.714;23.180;2022-07-09T11:42:04;94431.00;;;17.87;84.12
21395;BME280;10858;42.714;23.180;2022-07-09T11:44:31;94435.94;;;18.20;83.30
21395;BME280;10858;42.714;23.180;2022-07-09T11:47:04;94426.16;;;18.27;83.18
21395;BME280;10858;42.714;23.180;2022-07-09T11:49:41;94425.66;;;19.13;80.42
21395;BME280;10858;42.714;23.180;2022-07-09T11:52:25;94423.72;;;19.50;78.51
21395;BME280;10858;42.714;23.180;2022-07-09T11:55:11;94421.84;;;20.22;74.78
21395;BME280;10858;42.714;23.180;2022-07-09T11:57:38;94421.38;;;20.89;74.67
21395;BME280;10858;42.714;23.180;2022-07-09T12:00:07;94422.94;;;20.77;73.14
21395;BME280;10858;42.714;23.180;2022-07-09T12:02:35;94421.06;;;21.26;69.58
21395;BME280;10858;42.714;23.180;2022-07-09T12:05:07;94415.78;;;20.90;70.37
21395;BME280;10858;42.714;23.180;2022-07-09T12:07:34;94419.31;;;21.18;69.89
21395;BME280;10858;42.714;23.180;2022-07-09T12:10:11;94423.38;;;20.74;70.46
21395;BME280;10858;42.714;23.180;2022-07-09T12:12:37;94420.59;;;21.16;69.64
21395;BME280;10858;42.714;23.180;2022-07-09T12:15:05;94409.97;;;21.55;68.74
21395;BME280;10858;42.714;23.180;2022-07-09T12:17:32;94414.53;;;21.55;66.87
21395;BME280;10858;42.714;23.180;2022-07-09T12:19:59;94404.81;;;21.60;68.10
21395;BME280;10858;42.714;23.180;2022-07-09T12:22:26;94406.72;;;21.66;67.09
21395;BME280;10858;42.714;23.180;2022-07-09T12:24:53;94408.59;;;22.39;65.60
21395;BME280;10858;42.714;23.180;2022-07-09T12:27:20;94409.38;;;21.60;67.59
21395;BME280;10858;42.714;23.180;2022-07-09T12:29:47;94401.50;;;22.32;64.40
21395;BME280;10858;42.714;23.180;2022-07-09T12:32:14;94411.16;;;22.60;64.45
21395;BME280;10858;42.714;23.180;2022-07-09T12:34:40;94409.78;;;22.17;64.91
21395;BME280;10858;42.714;23.180;2022-07-09T12:37:06;94419.31;;;21.12;66.41
21395;BME280;10858;42.714;23.180;2022-07-09T12:39:33;94420.16;;;21.19;68.08
21395;BME280;10858;42.714;23.180;2022-07-09T12:41:59;94417.91;;;21.23;67.13
21395;BME280;10858;42.714;23.180;2022-07-09T12:44:26;94403.09;;;21.93;66.64
21395;BME280;10858;42.714;23.180;2022-07-09T12:46:53;94405.44;;;22.23;64.65
21395;BME280;10858;42.714;23.180;2022-07-09T12:49:20;94404.44;;;22.43;63.39
21395;BME280;10858;42.714;23.180;2022-07-09T12:51:46;94408.22;;;22.88;61.89
21395;BME280;10858;42.714;23.180;2022-07-09T12:54:12;94400.50;;;22.92;63.24
21395;BME280;10858;42.714;23.180;2022-07-09T12:56:39;94403.59;;;22.36;63.00
21395;BME280;10858;42.714;23.180;2022-07-09T12:59:06;94393.78;;;22.16;63.76